createdAt,value
2023-05-19T00:01:24.924Z,15.70
2023-05-19T00:03:54.888Z,15.70
2023-05-19T00:06:25.734Z,15.70
2023-05-19T00:08:58.626Z,15.60
2023-05-19T00:11:27.620Z,15.60
2023-05-19T00:13:56.710Z,15.60
2023-05-19T00:16:27.907Z,15.60
2023-05-19T00:18:57.106Z,15.50
2023-05-19T00:21:25.224Z,15.50
2023-05-19T00:23:53.539Z,15.50
2023-05-19T00:26:22.626Z,15.50
2023-05-19T00:29:00.503Z,15.40
2023-05-19T00:31:31.661Z,15.40
2023-05-19T00:33:59.818Z,15.30
2023-05-19T00:36:27.897Z,15.30
2023-05-19T00:38:57.507Z,15.20
2023-05-19T00:41:26.214Z,15.20
2023-05-19T00:43:54.378Z,15.20
2023-05-19T00:46:22.989Z,15.10
2023-05-19T00:48:52.471Z,15.10
2023-05-19T00:51:20.831Z,15.10
2023-05-19T00:53:51.052Z,15.00
2023-05-19T00:56:20.018Z,15.00
2023-05-19T00:58:49.025Z,14.90
2023-05-19T01:01:21.283Z,14.80
2023-05-19T01:03:50.394Z,14.80
2023-05-19T01:06:20.847Z,14.70
2023-05-19T01:08:50.141Z,14.70
2023-05-19T01:11:18.276Z,14.70
2023-05-19T01:13:46.974Z,14.70
2023-05-19T01:16:22.354Z,14.60
2023-05-19T01:18:58.310Z,14.60
2023-05-19T01:22:03.562Z,14.60
2023-05-19T01:25:03.833Z,14.50
2023-05-19T01:28:03.320Z,14.50
2023-05-19T01:30:37.919Z,14.40
2023-05-19T01:33:08.624Z,14.40
2023-05-19T01:35:38.086Z,14.40
2023-05-19T01:38:09.305Z,14.30
2023-05-19T01:40:39.363Z,14.20
2023-05-19T01:43:11.785Z,14.20
2023-05-19T01:45:41.863Z,14.20
2023-05-19T01:48:12.069Z,14.20
2023-05-19T01:50:40.874Z,14.10
2023-05-19T01:53:09.345Z,14.10
2023-05-19T01:55:43.467Z,14.00
2023-05-19T01:58:18.526Z,14.00
2023-05-19T02:00:53.903Z,14.00
2023-05-19T02:03:38.394Z,14.00
2023-05-19T02:06:23.046Z,14.00
2023-05-19T02:08:58.208Z,14.00
2023-05-19T02:11:31.781Z,13.90
2023-05-19T02:14:08.214Z,13.90
2023-05-19T02:16:40.301Z,13.90
2023-05-19T02:19:20.758Z,13.80
2023-05-19T02:21:49.042Z,13.80
2023-05-19T02:24:17.533Z,13.80
2023-05-19T02:26:45.674Z,13.80
2023-05-19T02:29:13.762Z,13.80
2023-05-19T02:31:43.198Z,13.80
2023-05-19T02:34:11.304Z,13.80
2023-05-19T02:36:43.019Z,13.70
2023-05-19T02:39:11.982Z,13.70
2023-05-19T02:41:40.400Z,13.70
2023-05-19T02:44:08.918Z,13.70
2023-05-19T02:46:37.739Z,13.60
2023-05-19T02:49:07.357Z,13.60
2023-05-19T02:51:35.414Z,13.60
2023-05-19T02:54:03.382Z,13.60
2023-05-19T02:56:31.510Z,13.50
2023-05-19T02:58:59.600Z,13.50
2023-05-19T03:01:27.633Z,13.50
2023-05-19T03:03:55.793Z,13.50
2023-05-19T03:06:25.378Z,13.50
2023-05-19T03:08:53.467Z,13.40
2023-05-19T03:11:23.246Z,13.40
2023-05-19T03:13:51.356Z,13.40
2023-05-19T03:16:19.600Z,13.40
2023-05-19T03:18:47.910Z,13.40
2023-05-19T03:21:16.302Z,13.30
2023-05-19T03:23:45.866Z,13.20
2023-05-19T03:26:14.131Z,13.10
2023-05-19T03:28:42.287Z,13.20
2023-05-19T03:31:10.475Z,13.10
2023-05-19T03:33:40.159Z,13.20
2023-05-19T03:36:08.977Z,13.20
2023-05-19T03:38:40.056Z,13.10
2023-05-19T03:41:09.588Z,13.20
2023-05-19T03:43:37.732Z,13.10
2023-05-19T03:46:08.519Z,13.10
2023-05-19T03:49:04.478Z,13.10
2023-05-19T03:51:51.270Z,13.10
2023-05-19T03:54:27.523Z,13.10
2023-05-19T03:56:57.036Z,13.00
2023-05-19T03:59:25.156Z,12.90
2023-05-19T04:01:53.383Z,12.80
2023-05-19T04:04:21.656Z,12.80
2023-05-19T04:06:49.892Z,12.80
2023-05-19T04:09:19.407Z,12.80
2023-05-19T04:11:47.456Z,12.80
2023-05-19T04:14:16.837Z,12.80
2023-05-19T04:16:45.007Z,12.90
2023-05-19T04:19:13.060Z,12.90
2023-05-19T04:21:41.126Z,12.90
2023-05-19T04:24:09.458Z,12.90
2023-05-19T04:26:38.423Z,12.90
2023-05-19T04:29:06.795Z,12.90
2023-05-19T04:31:36.475Z,12.90
2023-05-19T04:34:07.840Z,12.80
2023-05-19T04:36:36.649Z,12.80
2023-05-19T04:39:07.863Z,12.80
2023-05-19T04:41:36.006Z,12.80
2023-05-19T04:44:07.399Z,12.70
2023-05-19T04:46:36.924Z,12.70
2023-05-19T04:49:06.237Z,12.80
2023-05-19T04:51:35.754Z,12.80
2023-05-19T04:54:04.033Z,12.80
2023-05-19T04:56:32.080Z,12.90
2023-05-19T04:59:00.613Z,12.90
2023-05-19T05:01:31.260Z,12.90
2023-05-19T05:04:02.590Z,13.00
2023-05-19T05:06:31.708Z,13.00
2023-05-19T05:09:00.532Z,13.00
2023-05-19T05:11:29.569Z,13.00
2023-05-19T05:13:58.869Z,13.00
2023-05-19T05:16:30.112Z,13.00
2023-05-19T05:19:01.784Z,13.00
2023-05-19T05:21:31.780Z,13.10
2023-05-19T05:24:00.945Z,13.10
2023-05-19T05:26:34.214Z,13.10
2023-05-19T05:29:02.949Z,13.20
2023-05-19T05:31:31.505Z,13.20
2023-05-19T05:34:01.197Z,13.20
2023-05-19T05:36:32.515Z,13.20
2023-05-19T05:39:02.358Z,13.30
2023-05-19T05:41:35.155Z,13.30
2023-05-19T05:44:07.314Z,13.30
2023-05-19T05:46:35.653Z,13.30
2023-05-19T05:49:06.555Z,13.30
2023-05-19T05:51:35.861Z,13.40
2023-05-19T05:54:07.303Z,13.40
2023-05-19T05:56:41.228Z,13.50
2023-05-19T05:59:10.382Z,13.50
2023-05-19T06:01:38.729Z,13.50
2023-05-19T06:04:11.333Z,13.60
2023-05-19T06:06:39.370Z,13.70
2023-05-19T06:09:07.577Z,13.70
2023-05-19T06:11:35.705Z,13.70
2023-05-19T06:14:05.353Z,13.80
2023-05-19T06:16:56.211Z,13.80
2023-05-19T06:19:26.236Z,13.90
2023-05-19T06:21:54.380Z,13.90
2023-05-19T06:24:22.686Z,14.00
2023-05-19T06:26:50.901Z,14.00
2023-05-19T06:29:21.453Z,14.00
2023-05-19T06:31:51.301Z,14.10
2023-05-19T06:34:21.031Z,14.10
2023-05-19T06:36:50.510Z,14.10
2023-05-19T06:39:20.224Z,14.10
2023-05-19T06:41:48.389Z,14.20
2023-05-19T06:44:36.389Z,14.20
2023-05-19T06:47:04.694Z,14.20
2023-05-19T06:49:32.766Z,14.20
2023-05-19T06:52:02.208Z,14.30
2023-05-19T06:54:30.328Z,14.30
2023-05-19T06:56:58.880Z,14.30
2023-05-19T06:59:27.067Z,14.40
2023-05-19T07:01:55.284Z,14.40
2023-05-19T07:04:23.462Z,14.50
2023-05-19T07:06:51.530Z,14.50
2023-05-19T07:09:21.602Z,14.60
2023-05-19T07:11:50.084Z,14.60
2023-05-19T07:14:18.156Z,14.60
2023-05-19T07:16:46.417Z,14.60
2023-05-19T07:19:15.136Z,14.70
2023-05-19T07:21:44.813Z,14.60
2023-05-19T07:24:12.953Z,14.60
2023-05-19T07:26:42.643Z,14.70
2023-05-19T07:29:10.776Z,14.70
2023-05-19T07:31:38.797Z,14.80
2023-05-19T07:34:06.865Z,14.80
2023-05-19T07:36:35.194Z,14.90
2023-05-19T07:39:03.524Z,14.90
2023-05-19T07:41:32.025Z,15.00
2023-05-19T07:44:07.454Z,15.00
2023-05-19T07:46:36.054Z,15.00
2023-05-19T07:49:04.388Z,15.10
2023-05-19T07:51:32.651Z,15.10
2023-05-19T07:54:01.083Z,15.00
2023-05-19T07:56:29.580Z,15.10
2023-05-19T07:58:57.686Z,15.20
2023-05-19T08:01:27.021Z,15.10
2023-05-19T08:03:55.154Z,15.10
2023-05-19T08:06:23.283Z,15.10
2023-05-19T08:08:51.355Z,15.10
2023-05-19T08:11:19.703Z,15.20
2023-05-19T08:13:49.333Z,15.20
2023-05-19T08:16:17.537Z,15.20
2023-05-19T08:18:47.095Z,15.30
2023-05-19T08:21:15.161Z,15.40
2023-05-19T08:23:43.242Z,15.40
2023-05-19T08:26:11.321Z,15.40
2023-05-19T08:28:39.383Z,15.50
2023-05-19T08:31:07.461Z,15.50
2023-05-19T08:33:35.578Z,15.60
2023-05-19T08:36:05.497Z,15.60
2023-05-19T08:38:39.277Z,15.60
2023-05-19T08:41:07.813Z,15.40
2023-05-19T08:43:36.062Z,15.50
2023-05-19T08:46:06.948Z,15.50
2023-05-19T08:48:40.417Z,15.50
2023-05-19T08:51:19.949Z,15.60
2023-05-19T08:53:52.963Z,15.60
2023-05-19T08:56:23.979Z,15.70
2023-05-19T08:58:52.804Z,15.80
2023-05-19T09:01:21.459Z,15.80
2023-05-19T09:03:50.704Z,15.70
2023-05-19T09:06:20.203Z,15.70
2023-05-19T09:08:48.354Z,15.70
2023-05-19T09:11:16.422Z,15.80
2023-05-19T09:13:44.799Z,15.90
2023-05-19T09:16:13.753Z,15.90
2023-05-19T09:18:42.539Z,15.90
2023-05-19T09:21:11.869Z,16.00
2023-05-19T09:23:41.290Z,16.10
2023-05-19T09:26:10.544Z,16.10
2023-05-19T09:28:38.669Z,16.20
2023-05-19T09:31:08.284Z,16.10
2023-05-19T09:33:38.144Z,16.20
2023-05-19T09:36:08.594Z,16.30
2023-05-19T09:38:37.754Z,16.30
2023-05-19T09:41:08.366Z,16.40
2023-05-19T09:43:36.984Z,16.50
2023-05-19T09:46:06.329Z,16.50
2023-05-19T09:48:34.770Z,16.50
2023-05-19T09:51:03.332Z,16.50
2023-05-19T09:53:32.465Z,16.50
2023-05-19T09:56:02.019Z,16.60
2023-05-19T09:58:36.531Z,16.60
2023-05-19T10:01:06.382Z,16.60
2023-05-19T10:03:35.380Z,16.70
2023-05-19T10:06:05.699Z,16.70
2023-05-19T10:08:36.008Z,16.70
2023-05-19T10:11:04.793Z,16.80
2023-05-19T10:13:38.630Z,16.70
2023-05-19T10:16:07.775Z,16.70
2023-05-19T10:18:39.602Z,16.60
2023-05-19T10:21:09.599Z,16.70
2023-05-19T10:23:37.752Z,16.70
2023-05-19T10:26:07.727Z,16.80
2023-05-19T10:28:41.967Z,16.90
2023-05-19T10:31:14.279Z,17.00
2023-05-19T10:33:57.901Z,17.10
2023-05-19T10:36:37.982Z,17.20
2023-05-19T10:39:08.776Z,17.20
2023-05-19T10:41:44.472Z,17.00
2023-05-19T10:44:19.571Z,17.00
2023-05-19T10:46:47.895Z,17.00
2023-05-19T10:49:22.710Z,17.00
2023-05-19T10:51:50.771Z,17.10
2023-05-19T10:54:19.567Z,17.00
2023-05-19T10:56:48.838Z,17.10
2023-05-19T10:59:37.234Z,17.10
2023-05-19T11:02:05.788Z,17.10
2023-05-19T11:04:52.090Z,16.90
2023-05-19T11:07:21.697Z,16.90
2023-05-19T11:09:52.527Z,17.10
2023-05-19T11:12:25.056Z,17.10
2023-05-19T11:14:56.110Z,17.30
2023-05-19T11:17:27.403Z,17.30
2023-05-19T11:19:57.356Z,17.30
2023-05-19T11:22:26.662Z,17.30
2023-05-19T11:24:56.405Z,17.40
2023-05-19T11:27:27.186Z,17.50
2023-05-19T11:29:57.445Z,17.40
2023-05-19T11:32:29.292Z,17.50
2023-05-19T11:34:58.146Z,17.60
2023-05-19T11:37:26.838Z,17.70
2023-05-19T11:39:54.924Z,17.70
2023-05-19T11:42:23.002Z,17.70
2023-05-19T11:44:51.159Z,17.80
2023-05-19T11:47:21.496Z,17.80
2023-05-19T11:49:50.022Z,17.80
2023-05-19T11:52:18.150Z,17.90
2023-05-19T11:54:49.611Z,17.90
2023-05-19T11:57:17.817Z,17.90
2023-05-19T11:59:48.231Z,18.00
2023-05-19T12:02:20.072Z,18.00
2023-05-19T12:04:49.401Z,17.90
2023-05-19T12:07:19.304Z,17.80
2023-05-19T12:09:48.173Z,17.80
2023-05-19T12:12:18.695Z,17.80
2023-05-19T12:14:48.158Z,17.90
2023-05-19T12:17:19.713Z,17.90
2023-05-19T12:19:50.582Z,18.00
2023-05-19T12:22:20.185Z,18.20
2023-05-19T12:24:48.960Z,18.20
2023-05-19T12:27:20.153Z,18.20
2023-05-19T12:29:52.873Z,18.30
2023-05-19T12:32:23.860Z,18.40
2023-05-19T12:34:53.570Z,18.40
2023-05-19T12:37:21.798Z,18.60
2023-05-19T12:39:50.368Z,18.50
2023-05-19T12:42:19.023Z,18.40
2023-05-19T12:44:50.060Z,18.40
2023-05-19T12:47:19.760Z,18.40
2023-05-19T12:50:02.524Z,18.40
2023-05-19T12:52:32.539Z,18.60
2023-05-19T12:55:01.506Z,18.60
2023-05-19T12:57:32.758Z,18.50
2023-05-19T13:00:06.911Z,18.40
2023-05-19T13:02:36.457Z,18.50
2023-05-19T13:05:06.263Z,18.60
2023-05-19T13:07:35.638Z,18.50
2023-05-19T13:10:03.972Z,18.50
2023-05-19T13:12:32.034Z,18.60
2023-05-19T13:15:00.503Z,18.60
2023-05-19T13:17:28.576Z,18.60
2023-05-19T13:19:56.778Z,18.50
2023-05-19T13:22:26.305Z,18.60
2023-05-19T13:24:54.383Z,18.80
2023-05-19T13:27:24.717Z,18.80
2023-05-19T13:29:53.199Z,18.80
2023-05-19T13:32:21.379Z,18.90
2023-05-19T13:34:49.434Z,18.90
2023-05-19T13:37:17.485Z,18.80
2023-05-19T13:39:47.048Z,18.80
2023-05-19T13:42:16.308Z,18.80
2023-05-19T13:44:44.425Z,18.90
2023-05-19T13:47:12.873Z,18.90
2023-05-19T13:49:41.383Z,18.90
2023-05-19T13:52:09.468Z,19.00
2023-05-19T13:54:37.488Z,19.00
2023-05-19T13:57:07.414Z,19.00
2023-05-19T13:59:45.681Z,19.10
2023-05-19T14:02:21.346Z,19.10
2023-05-19T14:04:49.489Z,19.00
2023-05-19T14:07:17.608Z,19.00
2023-05-19T14:09:46.285Z,19.00
2023-05-19T14:12:15.738Z,19.10
2023-05-19T14:14:43.834Z,19.10
2023-05-19T14:17:11.912Z,19.30
2023-05-19T14:19:40.121Z,19.30
2023-05-19T14:22:08.423Z,19.40
2023-05-19T14:24:37.164Z,19.50
2023-05-19T14:27:05.406Z,19.40
2023-05-19T14:29:35.347Z,19.40
2023-05-19T14:32:03.910Z,19.40
2023-05-19T14:34:32.160Z,19.50
2023-05-19T14:37:00.298Z,19.80
2023-05-19T14:39:28.320Z,20.40
2023-05-19T14:41:56.440Z,21.10
2023-05-19T14:44:24.444Z,22.00
2023-05-19T14:46:53.913Z,22.70
2023-05-19T14:49:22.002Z,23.20
2023-05-19T14:51:49.988Z,23.70
2023-05-19T14:54:18.103Z,24.30
2023-05-19T14:56:46.206Z,25.30
2023-05-19T14:59:14.285Z,25.80
2023-05-19T15:01:42.549Z,25.80
2023-05-19T15:04:12.068Z,26.20
2023-05-19T15:06:40.129Z,26.70
2023-05-19T15:09:08.322Z,27.10
2023-05-19T15:11:36.531Z,27.60
2023-05-19T15:14:04.688Z,27.80
2023-05-19T15:16:32.779Z,28.20
2023-05-19T15:19:00.815Z,28.40
2023-05-19T15:21:30.276Z,28.40
2023-05-19T15:23:58.320Z,29.00
2023-05-19T15:26:27.609Z,29.30
2023-05-19T15:28:57.650Z,29.50
2023-05-19T15:31:25.750Z,29.40
2023-05-19T15:33:53.773Z,29.40
2023-05-19T15:36:21.866Z,28.90
2023-05-19T15:38:51.326Z,28.80
2023-05-19T15:41:19.414Z,29.10
2023-05-19T15:43:47.428Z,29.20
2023-05-19T15:46:16.193Z,29.50
2023-05-19T15:48:44.368Z,29.50
2023-05-19T15:51:12.488Z,30.00
2023-05-19T15:53:40.658Z,30.70
2023-05-19T15:56:10.537Z,31.30
2023-05-19T15:58:38.622Z,31.50
2023-05-19T16:01:06.852Z,31.90
2023-05-19T16:03:35.504Z,31.60
2023-05-19T16:06:03.750Z,31.80
2023-05-19T16:08:31.875Z,31.90
2023-05-19T16:10:59.934Z,31.60
2023-05-19T16:13:30.436Z,30.90
2023-05-19T16:15:58.505Z,30.80
2023-05-19T16:18:26.711Z,30.90
2023-05-19T16:20:54.860Z,31.00
2023-05-19T16:23:24.597Z,31.50
2023-05-19T16:25:52.581Z,31.80
2023-05-19T16:28:22.560Z,31.50
2023-05-19T16:30:53.847Z,31.90
2023-05-19T16:33:21.869Z,32.50
2023-05-19T16:35:50.001Z,33.10
2023-05-19T16:38:18.088Z,33.30
2023-05-19T16:40:46.274Z,32.90
2023-05-19T16:43:14.364Z,32.90
2023-05-19T16:45:42.415Z,32.90
2023-05-19T16:48:12.487Z,32.90
2023-05-19T16:50:40.739Z,33.30
2023-05-19T16:53:08.781Z,33.80
2023-05-19T16:55:36.860Z,33.80
2023-05-19T16:58:05.003Z,33.70
2023-05-19T17:00:33.218Z,33.60
2023-05-19T17:03:01.464Z,33.30
2023-05-19T17:05:31.525Z,32.70
2023-05-19T17:07:59.543Z,32.80
2023-05-19T17:10:27.607Z,32.30
2023-05-19T17:12:55.659Z,32.10
2023-05-19T17:15:23.737Z,32.10
2023-05-19T17:17:51.848Z,32.30
2023-05-19T17:20:19.935Z,32.70
2023-05-19T17:22:49.318Z,32.80
2023-05-19T17:25:17.508Z,32.90
2023-05-19T17:27:45.544Z,33.00
2023-05-19T17:30:14.738Z,33.00
2023-05-19T17:32:42.954Z,33.00
2023-05-19T17:35:11.277Z,32.90
2023-05-19T17:37:39.254Z,32.60
2023-05-19T17:40:10.188Z,32.70
2023-05-19T17:42:38.292Z,32.70
2023-05-19T17:45:07.528Z,32.70
2023-05-19T17:47:35.614Z,32.80
2023-05-19T17:50:03.718Z,33.00
2023-05-19T17:52:32.921Z,32.70
2023-05-19T17:55:01.593Z,32.60
2023-05-19T17:57:32.453Z,32.60
2023-05-19T18:00:01.321Z,32.20
2023-05-19T18:02:30.000Z,32.20
2023-05-19T18:04:58.563Z,32.20
2023-05-19T18:07:28.795Z,31.40
2023-05-19T18:09:58.597Z,31.30
2023-05-19T18:12:26.706Z,31.30
2023-05-19T18:14:56.401Z,31.30
2023-05-19T18:17:24.534Z,31.20
2023-05-19T18:19:52.620Z,31.00
2023-05-19T18:22:20.702Z,30.80
2023-05-19T18:24:48.838Z,30.70
2023-05-19T18:27:16.821Z,30.40
2023-05-19T18:29:44.850Z,30.20
2023-05-19T18:32:16.836Z,30.00
2023-05-19T18:34:44.936Z,29.70
2023-05-19T18:37:12.966Z,29.00
2023-05-19T18:39:41.037Z,28.10
2023-05-19T18:42:09.048Z,27.50
2023-05-19T18:44:37.191Z,27.10
2023-05-19T18:47:05.488Z,26.60
2023-05-19T18:49:34.897Z,26.20
2023-05-19T18:52:02.872Z,25.80
2023-05-19T18:54:32.409Z,25.30
2023-05-19T18:57:01.290Z,25.10
2023-05-19T18:59:29.282Z,24.90
2023-05-19T19:01:57.308Z,24.60
2023-05-19T19:04:25.268Z,24.40
2023-05-19T19:06:54.708Z,24.30
2023-05-19T19:09:22.717Z,24.20
2023-05-19T19:11:50.753Z,24.00
2023-05-19T19:14:19.336Z,23.90
2023-05-19T19:16:47.443Z,23.70
2023-05-19T19:19:15.648Z,23.50
2023-05-19T19:21:43.721Z,23.30
2023-05-19T19:24:13.629Z,23.20
2023-05-19T19:26:41.685Z,23.10
2023-05-19T19:29:09.844Z,22.90
2023-05-19T19:31:37.938Z,22.70
2023-05-19T19:34:09.151Z,22.60
2023-05-19T19:36:37.283Z,22.50
2023-05-19T19:39:05.381Z,22.50
2023-05-19T19:41:34.834Z,22.50
2023-05-19T19:44:02.835Z,22.40
2023-05-19T19:46:31.096Z,22.30
2023-05-19T19:49:00.360Z,22.20
2023-05-19T19:51:28.515Z,22.10
2023-05-19T19:53:56.594Z,22.00
2023-05-19T19:56:26.135Z,21.80
2023-05-19T19:58:56.877Z,21.70
2023-05-19T20:01:27.867Z,21.60
2023-05-19T20:03:57.190Z,21.50
2023-05-19T20:06:25.411Z,21.50
2023-05-19T20:08:53.472Z,21.50
2023-05-19T20:11:22.898Z,21.40
2023-05-19T20:13:51.279Z,21.40
2023-05-19T20:16:20.817Z,21.30
2023-05-19T20:18:49.021Z,21.30
2023-05-19T20:21:17.119Z,21.20
2023-05-19T20:23:45.212Z,21.20
2023-05-19T20:26:13.716Z,21.10
2023-05-19T20:28:41.987Z,21.00
2023-05-19T20:31:10.184Z,21.00
2023-05-19T20:33:39.662Z,20.90
2023-05-19T20:36:08.225Z,20.90
2023-05-19T20:38:36.277Z,20.90
2023-05-19T20:41:04.960Z,20.80
2023-05-19T20:43:33.378Z,20.80
2023-05-19T20:46:03.625Z,20.80
2023-05-19T20:48:31.966Z,20.70
2023-05-19T20:51:01.633Z,20.80
2023-05-19T20:53:29.865Z,20.80
2023-05-19T20:55:58.039Z,20.70
2023-05-19T20:58:26.689Z,20.60
2023-05-19T21:00:57.778Z,20.60
2023-05-19T21:03:27.141Z,20.50
2023-05-19T21:05:56.273Z,20.50
2023-05-19T21:08:27.817Z,20.50
2023-05-19T21:10:56.108Z,20.40
2023-05-19T21:13:24.145Z,20.40
2023-05-19T21:15:52.186Z,20.30
2023-05-19T21:18:20.190Z,20.30
2023-05-19T21:20:48.262Z,20.20
2023-05-19T21:23:16.265Z,20.20
2023-05-19T21:25:45.709Z,20.20
2023-05-19T21:28:13.750Z,20.20
2023-05-19T21:30:41.813Z,20.20
2023-05-19T21:33:10.119Z,20.20
2023-05-19T21:35:38.420Z,20.20
2023-05-19T21:38:22.218Z,20.10
2023-05-19T21:40:53.978Z,20.00
2023-05-19T21:43:22.795Z,20.00
2023-05-19T21:45:50.921Z,19.90
2023-05-19T21:48:19.218Z,19.90
2023-05-19T21:50:47.274Z,19.90
2023-05-19T21:53:15.239Z,19.90
2023-05-19T21:55:43.278Z,19.90
2023-05-19T21:58:12.774Z,19.90
2023-05-19T22:00:40.999Z,19.70
2023-05-19T22:03:09.219Z,19.70
2023-05-19T22:05:38.219Z,19.70
2023-05-19T22:08:06.669Z,19.60
2023-05-19T22:10:36.897Z,19.60
2023-05-19T22:13:05.157Z,19.50
2023-05-19T22:15:34.634Z,19.50
2023-05-19T22:18:02.702Z,19.60
2023-05-19T22:20:30.801Z,19.50
2023-05-19T22:23:01.128Z,19.50
2023-05-19T22:25:29.290Z,19.50
2023-05-19T22:27:57.535Z,19.50
2023-05-19T22:30:25.851Z,19.50
2023-05-19T22:32:55.381Z,19.40
2023-05-19T22:35:24.267Z,19.40
2023-05-19T22:37:52.273Z,19.30
2023-05-19T22:40:20.515Z,19.30
2023-05-19T22:42:48.560Z,19.30
2023-05-19T22:45:16.664Z,19.20
2023-05-19T22:47:44.812Z,19.20
2023-05-19T22:50:14.738Z,19.10
2023-05-19T22:52:42.816Z,19.10
2023-05-19T22:55:11.161Z,19.10
2023-05-19T22:57:39.290Z,19.00
2023-05-19T23:00:09.148Z,18.90
2023-05-19T23:02:37.262Z,18.90
2023-05-19T23:05:05.850Z,18.80
2023-05-19T23:07:35.409Z,18.70
2023-05-19T23:10:04.276Z,18.70
2023-05-19T23:12:32.283Z,18.70
2023-05-19T23:15:00.407Z,18.70
2023-05-19T23:17:28.553Z,18.70
2023-05-19T23:19:56.716Z,18.70
2023-05-19T23:22:24.868Z,18.60
2023-05-19T23:24:54.270Z,18.50
2023-05-19T23:27:22.328Z,18.50
2023-05-19T23:29:51.540Z,18.40
2023-05-19T23:32:19.549Z,18.40
2023-05-19T23:34:48.619Z,18.40
2023-05-19T23:37:16.970Z,18.40
2023-05-19T23:39:45.043Z,18.40
2023-05-19T23:42:14.470Z,18.30
2023-05-19T23:44:42.540Z,18.30
2023-05-19T23:47:10.725Z,18.20
2023-05-19T23:49:38.878Z,18.20
2023-05-19T23:52:07.657Z,18.10
2023-05-19T23:54:35.642Z,18.10
2023-05-19T23:57:04.181Z,18.00
2023-05-19T23:59:33.553Z,18.00
